Time;durP1;ratioP1;P1;durP2;ratioP2;P2;SDS_P1;SDS_P2;PMS_P1;PMS_P2;Temp;Humidity;BMP_temperature;BMP_pressure;BME280_temperature;BME280_humidity;BME280_pressure;Samples;Min_cycle;Max_cycle;Signal;HPM_P1;HPM_P2
2024/01/18 00:04:29;;;;;;;23.48;11.80;;;-0.30;65.90;;;;;;20559349;28;20034;-42
2024/01/18 00:14:30;;;;;;;23.73;9.60;;;-0.40;66.50;;;;;;20563930;28;20105;-42
2024/01/18 00:24:30;;;;;;;23.60;9.25;;;-0.50;64.80;;;;;;20568792;28;20049;-43
2024/01/18 00:34:31;;;;;;;17.83;9.43;;;-0.50;61.70;;;;;;20563906;28;20054;-43
2024/01/18 00:44:32;;;;;;;18.85;8.88;;;-0.50;62.20;;;;;;20565414;28;20434;-43
2024/01/18 00:54:32;;;;;;;17.77;8.67;;;-0.60;57.50;;;;;;20559974;28;20075;-42
2024/01/18 01:04:33;;;;;;;16.93;8.20;;;-0.70;54.50;;;;;;20583695;28;20482;-40
2024/01/18 01:14:34;;;;;;;17.88;8.90;;;-0.70;51.70;;;;;;20584992;28;20997;-42
2024/01/18 01:24:38;;;;;;;17.42;8.75;;;-0.80;50.20;;;;;;20578632;28;20042;-43
2024/01/18 01:34:39;;;;;;;16.10;7.80;;;-0.90;44.50;;;;;;20582560;28;20550;-41
2024/01/18 01:44:39;;;;;;;15.75;8.40;;;-1.00;41.80;;;;;;20583486;28;20506;-39
2024/01/18 01:54:40;;;;;;;15.70;7.90;;;-1.10;37.90;;;;;;20580229;28;20038;-40
2024/01/18 02:04:41;;;;;;;16.55;7.65;;;-1.10;33.30;;;;;;20571078;28;20533;-39
2024/01/18 02:14:44;;;;;;;20.02;8.45;;;-1.10;32.80;;;;;;20579150;28;20042;-40
2024/01/18 02:24:54;;;;;;;13.40;7.70;;;-1.10;30.60;;;;;;20575369;28;20487;-40
2024/01/18 02:34:55;;;;;;;12.25;6.93;;;-1.10;31.00;;;;;;20581276;28;20051;-39
2024/01/18 02:44:57;;;;;;;13.50;6.35;;;-1.20;31.60;;;;;;20577061;28;20048;-40
2024/01/18 02:54:58;;;;;;;14.23;6.18;;;-1.20;28.40;;;;;;20573072;28;20042;-40
2024/01/18 03:04:59;;;;;;;14.73;6.47;;;-1.30;28.20;;;;;;20571721;28;20049;-46
2024/01/18 03:14:59;;;;;;;13.15;5.60;;;-1.30;30.40;;;;;;20562701;28;20104;-39
2024/01/18 03:25:01;;;;;;;11.88;5.70;;;-1.30;28.60;;;;;;20569985;28;20043;-39
2024/01/18 03:35:01;;;;;;;13.52;7.25;;;-1.40;30.40;;;;;;20577654;28;20038;-50
2024/01/18 03:45:02;;;;;;;9.32;5.07;;;-1.40;28.10;;;;;;20570798;28;20038;-40
2024/01/18 03:55:05;;;;;;;5.60;3.30;;;-1.50;25.00;;;;;;20570355;28;20032;-40
2024/01/18 04:05:06;;;;;;;5.82;3.08;;;-1.40;23.70;;;;;;20569588;28;20042;-41
2024/01/18 04:15:07;;;;;;;4.68;2.28;;;-1.50;23.70;;;;;;20584927;28;20107;-45
2024/01/18 04:25:07;;;;;;;5.30;2.28;;;-1.60;26.10;;;;;;20562284;28;20047;-39
2024/01/18 04:35:08;;;;;;;7.13;4.20;;;-1.60;27.60;;;;;;20576676;28;20129;-40
2024/01/18 04:45:09;;;;;;;5.70;2.80;;;-1.60;26.90;;;;;;20572595;28;20398;-40
2024/01/18 04:55:10;;;;;;;4.47;2.28;;;-1.60;25.90;;;;;;20573784;28;20035;-38
2024/01/18 05:05:11;;;;;;;5.18;1.50;;;-1.60;26.00;;;;;;20575315;28;20043;-39
2024/01/18 05:15:12;;;;;;;2.47;1.20;;;-1.80;26.00;;;;;;20566401;28;20031;-39
2024/01/18 05:25:13;;;;;;;4.30;1.20;;;-1.70;27.70;;;;;;20570067;28;20342;-40
2024/01/18 05:35:14;;;;;;;5.85;1.98;;;-1.80;25.50;;;;;;20573360;28;20047;-39
2024/01/18 05:45:15;;;;;;;5.97;2.40;;;-1.80;24.80;;;;;;20578801;28;20081;-40
2024/01/18 05:55:15;;;;;;;3.25;1.80;;;-1.80;26.50;;;;;;20589563;28;20046;-40
2024/01/18 06:05:16;;;;;;;6.75;1.80;;;-1.80;28.00;;;;;;20586404;28;20359;-39
2024/01/18 06:15:18;;;;;;;4.93;1.38;;;-1.80;27.90;;;;;;20587100;28;20440;-39
2024/01/18 06:25:19;;;;;;;3.60;1.50;;;-1.90;31.30;;;;;;20578904;28;20031;-39
2024/01/18 06:35:19;;;;;;;3.53;1.63;;;-1.90;32.40;;;;;;20570956;28;20049;-39
2024/01/18 06:45:20;;;;;;;2.40;1.25;;;-1.90;30.80;;;;;;20580451;28;20399;-40
2024/01/18 06:55:21;;;;;;;5.25;1.40;;;-1.90;30.60;;;;;;20582715;28;20117;-40
2024/01/18 07:05:21;;;;;;;3.20;1.48;;;-2.00;30.00;;;;;;20589433;28;20042;-40
2024/01/18 07:15:22;;;;;;;6.07;1.87;;;-2.00;25.80;;;;;;20575585;28;20828;-39
2024/01/18 07:25:22;;;;;;;7.15;2.08;;;-2.00;23.60;;;;;;20569911;28;20478;-39
2024/01/18 07:35:23;;;;;;;5.60;1.83;;;-2.00;21.60;;;;;;20589568;28;20507;-39
2024/01/18 07:45:24;;;;;;;3.53;1.95;;;-2.10;23.10;;;;;;20570498;28;20836;-40
2024/01/18 07:55:25;;;;;;;4.40;1.92;;;-2.10;22.60;;;;;;20557421;28;20573;-39
2024/01/18 08:05:27;;;;;;;3.90;1.65;;;-2.10;23.40;;;;;;20566849;28;20054;-40
2024/01/18 08:15:28;;;;;;;4.10;1.80;;;-2.00;26.70;;;;;;20567294;28;20023;-39
2024/01/18 08:25:28;;;;;;;3.67;1.63;;;-2.00;30.90;;;;;;20562265;28;20034;-40
2024/01/18 08:35:29;;;;;;;4.38;2.00;;;-1.90;36.50;;;;;;20565076;28;21111;-40
2024/01/18 08:45:30;;;;;;;4.53;2.20;;;-1.80;41.60;;;;;;20562741;28;20034;-40
2024/01/18 08:55:31;;;;;;;7.05;1.95;;;-1.60;57.60;;;;;;20569947;28;20482;-40
2024/01/18 09:05:31;;;;;;;5.05;2.17;;;-1.30;61.40;;;;;;20572236;28;20060;-41
2024/01/18 09:15:34;;;;;;;6.22;2.67;;;-1.10;73.00;;;;;;20566748;28;20530;-40
2024/01/18 09:25:34;;;;;;;4.90;2.25;;;-1.00;81.00;;;;;;20580504;28;20384;-40
2024/01/18 09:35:36;;;;;;;4.78;2.08;;;-0.70;84.30;;;;;;20572774;28;20047;-41
2024/01/18 09:45:41;;;;;;;4.88;2.30;;;-0.60;91.60;;;;;;20578188;28;20129;-41
2024/01/18 09:55:42;;;;;;;4.13;1.90;;;-0.30;95.60;;;;;;20570418;28;20039;-41
2024/01/18 10:05:43;;;;;;;5.53;1.92;;;0.10;93.30;;;;;;20571034;28;20042;-41
2024/01/18 10:15:44;;;;;;;3.47;1.83;;;0.40;56.10;;;;;;20567456;28;20043;-41
2024/01/18 10:25:46;;;;;;;6.40;1.75;;;0.80;37.00;;;;;;20563719;28;20041;-41
2024/01/18 10:35:48;;;;;;;3.33;1.25;;;1.10;27.00;;;;;;20574420;28;20482;-42
2024/01/18 10:45:49;;;;;;;3.20;0.60;;;1.80;18.90;;;;;;20583200;28;20092;-42
2024/01/18 10:55:51;;;;;;;3.13;0.50;;;2.20;21.40;;;;;;20581641;28;20031;-42
2024/01/18 11:05:52;;;;;;;2.67;0.82;;;2.20;27.30;;;;;;20595574;28;20079;-39
2024/01/18 11:15:53;;;;;;;2.95;0.90;;;1.90;39.60;;;;;;20594400;28;20132;-42
2024/01/18 11:25:54;;;;;;;1.13;0.32;;;1.80;55.50;;;;;;20597671;28;20035;-42
2024/01/18 11:35:56;;;;;;;0.82;0.10;;;2.10;67.20;;;;;;20583104;28;20074;-42
2024/01/18 11:45:57;;;;;;;0.75;0.20;;;1.70;60.40;;;;;;20570005;28;20115;-42
2024/01/18 11:56:01;;;;;;;2.65;0.50;;;1.70;92.70;;;;;;20571602;28;20042;-42
2024/01/18 12:06:03;;;;;;;5.30;0.80;;;2.40;99.90;;;;;;20575766;28;20049;-43
2024/01/18 12:16:05;;;;;;;2.58;1.00;;;3.20;99.90;;;;;;20573395;28;20042;-43
2024/01/18 12:26:05;;;;;;;4.47;0.80;;;3.80;99.90;;;;;;20573399;28;20059;-42
2024/01/18 12:36:07;;;;;;;1.95;0.40;;;4.00;64.40;;;;;;20570437;28;20053;-42
2024/01/18 12:46:07;;;;;;;1.55;0.40;;;4.80;22.00;;;;;;20577189;28;20046;-42
2024/01/18 12:56:12;;;;;;;0.85;0.28;;;4.00;7.20;;;;;;20571609;28;20046;-42
2024/01/18 13:06:15;;;;;;;1.55;0.40;;;3.70;15.60;;;;;;20565948;28;20050;-41
2024/01/18 13:16:16;;;;;;;1.65;0.35;;;4.00;21.60;;;;;;20570924;28;20487;-42
2024/01/18 13:26:16;;;;;;;2.05;0.40;;;4.60;8.90;;;;;;20572243;28;20047;-41
2024/01/18 13:36:17;;;;;;;1.07;0.33;;;4.30;4.90;;;;;;20569551;28;20090;-43
2024/01/18 13:46:19;;;;;;;1.30;0.50;;;4.30;3.20;;;;;;20567718;28;20801;-43
2024/01/18 13:56:20;;;;;;;1.60;0.60;;;4.40;1.00;;;;;;20570620;28;20465;-41
2024/01/18 14:06:22;;;;;;;2.03;0.60;;;4.00;1.00;;;;;;20575080;28;20073;-43
2024/01/18 14:16:22;;;;;;;1.67;0.50;;;3.60;1.00;;;;;;20573276;28;20053;-42
2024/01/18 14:26:23;;;;;;;1.70;1.00;;;3.20;1.00;;;;;;20579777;28;20038;-42
2024/01/18 14:36:24;;;;;;;1.55;0.60;;;3.00;9.10;;;;;;20577561;28;20482;-43
2024/01/18 14:46:24;;;;;;;3.57;0.70;;;3.20;18.20;;;;;;20579947;28;20129;-42
2024/01/18 14:56:25;;;;;;;1.88;0.90;;;3.30;22.80;;;;;;20577818;28;21194;-43
2024/01/18 15:06:26;;;;;;;2.75;0.90;;;3.30;18.40;;;;;;20578985;28;20092;-44
2024/01/18 15:16:26;;;;;;;2.47;1.05;;;3.10;23.30;;;;;;20578644;28;20038;-42
2024/01/18 15:26:27;;;;;;;3.85;1.10;;;2.90;24.90;;;;;;20578728;28;20108;-43
2024/01/18 15:36:28;;;;;;;3.05;1.15;;;2.70;26.40;;;;;;20571646;28;20038;-43
2024/01/18 15:46:28;;;;;;;4.38;1.70;;;2.40;27.40;;;;;;20577167;28;20089;-43
2024/01/18 15:56:30;;;;;;;4.88;1.60;;;2.10;31.00;;;;;;20582572;28;20427;-42
2024/01/18 16:06:31;;;;;;;3.15;1.35;;;1.80;37.20;;;;;;20572878;28;20410;-41
2024/01/18 16:16:31;;;;;;;3.85;1.75;;;1.50;43.60;;;;;;20580449;28;20046;-42
2024/01/18 16:26:32;;;;;;;9.40;2.57;;;1.30;49.80;;;;;;20585569;28;20482;-43
2024/01/18 16:36:33;;;;;;;4.88;2.10;;;1.00;58.40;;;;;;20583400;28;20485;-42
2024/01/18 16:46:34;;;;;;;3.72;1.88;;;0.90;65.80;;;;;;20590571;28;20035;-42
2024/01/18 16:56:34;;;;;;;6.15;2.58;;;0.70;73.20;;;;;;20580258;28;20037;-42
2024/01/18 17:06:36;;;;;;;5.75;2.55;;;0.60;82.10;;;;;;20575135;28;20286;-42
2024/01/18 17:16:36;;;;;;;5.68;3.50;;;0.50;86.90;;;;;;20568457;28;20035;-38
2024/01/18 17:26:37;;;;;;;8.07;3.20;;;0.50;90.10;;;;;;20570826;28;20046;-38
2024/01/18 17:36:37;;;;;;;8.77;4.32;;;0.40;92.40;;;;;;20572087;28;20049;-38
2024/01/18 17:46:38;;;;;;;8.37;4.67;;;0.30;94.70;;;;;;20586630;28;20505;-38
2024/01/18 17:56:39;;;;;;;11.68;5.00;;;0.30;94.70;;;;;;20591040;28;20822;-40
2024/01/18 18:06:40;;;;;;;9.20;5.25;;;0.20;94.20;;;;;;20575659;28;20043;-39
2024/01/18 18:16:40;;;;;;;11.88;5.85;;;0.30;91.80;;;;;;20584163;28;20479;-40
2024/01/18 18:26:42;;;;;;;10.43;5.80;;;0.20;91.50;;;;;;20578927;28;20482;-39
2024/01/18 18:36:43;;;;;;;12.57;5.00;;;0.10;91.30;;;;;;20575158;28;20494;-39
2024/01/18 18:46:43;;;;;;;8.15;4.43;;;0.10;86.00;;;;;;20575178;28;20438;-39
2024/01/18 18:56:44;;;;;;;10.40;5.20;;;0.00;84.10;;;;;;20577844;28;20035;-39
2024/01/18 19:06:45;;;;;;;12.00;6.00;;;0.00;82.20;;;;;;20580188;28;20090;-39
2024/01/18 19:16:45;;;;;;;12.20;5.32;;;0.00;79.00;;;;;;20576548;28;20046;-40
2024/01/18 19:26:46;;;;;;;17.02;6.72;;;-0.20;75.10;;;;;;20576880;28;20181;-40
2024/01/18 19:36:48;;;;;;;16.60;7.47;;;-0.20;72.00;;;;;;20577249;28;20034;-40
2024/01/18 19:46:50;;;;;;;15.30;7.40;;;-0.30;70.90;;;;;;20574223;28;20034;-39
2024/01/18 19:56:51;;;;;;;19.95;8.50;;;-0.30;59.40;;;;;;20579918;28;20037;-39
2024/01/18 20:06:52;;;;;;;13.85;8.05;;;-0.30;57.80;;;;;;20573110;28;20050;-40
2024/01/18 20:16:53;;;;;;;13.27;6.72;;;-0.30;56.50;;;;;;20573636;28;20035;-40
2024/01/18 20:26:53;;;;;;;12.75;6.75;;;-0.40;53.80;;;;;;20573282;28;20042;-40
2024/01/18 20:36:54;;;;;;;10.95;5.97;;;-0.40;53.80;;;;;;20565989;28;20047;-38
2024/01/18 20:46:55;;;;;;;17.27;7.13;;;-0.40;53.70;;;;;;20578664;28;20121;-38
2024/01/18 20:56:55;;;;;;;19.37;7.70;;;-0.50;53.00;;;;;;20575483;28;20142;-39
2024/01/18 21:06:56;;;;;;;17.50;7.88;;;-0.50;61.00;;;;;;20579829;28;20466;-39
2024/01/18 21:16:57;;;;;;;21.08;9.35;;;-0.50;66.80;;;;;;20580990;28;20073;-40
2024/01/18 21:26:59;;;;;;;22.30;10.68;;;-0.50;68.30;;;;;;20584454;28;20490;-38
2024/01/18 21:36:59;;;;;;;21.70;9.13;;;-0.40;70.50;;;;;;20585730;28;20043;-39
2024/01/18 21:47:01;;;;;;;18.98;8.63;;;-0.40;76.10;;;;;;20595070;28;20034;-39
2024/01/18 21:57:02;;;;;;;16.58;8.65;;;-0.40;80.00;;;;;;20582587;28;20042;-39
2024/01/18 22:07:03;;;;;;;15.75;7.88;;;-0.40;75.30;;;;;;20586185;28;20169;-39
2024/01/18 22:17:04;;;;;;;15.55;6.25;;;-0.40;77.10;;;;;;20579892;28;20047;-39
2024/01/18 22:27:04;;;;;;;12.98;4.75;;;-0.40;77.30;;;;;;20579517;28;20050;-39
2024/01/18 22:37:06;;;;;;;9.48;2.95;;;-0.30;77.30;;;;;;20583506;28;20557;-39
2024/01/18 22:47:07;;;;;;;7.70;2.28;;;-0.10;71.60;;;;;;20573736;28;20043;-38
2024/01/18 22:57:07;;;;;;;6.22;1.38;;;0.10;71.50;;;;;;20576906;28;20109;-39
2024/01/18 23:07:08;;;;;;;4.07;1.40;;;0.10;77.00;;;;;;20570692;28;20045;-39
2024/01/18 23:17:09;;;;;;;2.58;0.75;;;0.10;76.30;;;;;;20575254;28;20042;-39
2024/01/18 23:27:10;;;;;;;4.38;1.80;;;0.40;90.90;;;;;;20576773;28;20050;-42
2024/01/18 23:37:10;;;;;;;5.03;1.52;;;0.90;89.40;;;;;;20568630;28;20446;-38
2024/01/18 23:47:11;;;;;;;10.75;2.00;;;1.20;57.30;;;;;;20567506;28;20387;-38
2024/01/18 23:57:11;;;;;;;6.60;1.90;;;1.30;40.30;;;;;;20570703;28;20501;-38
